createdAt,value
2023-03-31T00:01:42.911Z,99937.75
2023-03-31T00:04:13.327Z,99923.03
2023-03-31T00:06:42.214Z,99927.88
2023-03-31T00:09:14.099Z,99932.59
2023-03-31T00:11:40.864Z,99933.31
2023-03-31T00:14:08.579Z,99925.91
2023-03-31T00:16:36.662Z,99921.22
2023-03-31T00:19:05.963Z,99914.75
2023-03-31T00:21:36.953Z,99905.38
2023-03-31T00:24:09.366Z,99910.81
2023-03-31T00:26:36.422Z,99901.41
2023-03-31T00:29:05.053Z,99900.13
2023-03-31T00:31:32.234Z,99898.41
2023-03-31T00:33:59.412Z,99893.16
2023-03-31T00:36:27.426Z,99888.00
2023-03-31T00:38:56.238Z,99886.34
2023-03-31T00:41:23.091Z,99887.59
2023-03-31T00:44:18.856Z,99887.81
2023-03-31T00:46:54.659Z,99882.66
2023-03-31T00:49:37.379Z,99883.53
2023-03-31T00:52:09.343Z,99877.22
2023-03-31T00:54:36.934Z,99873.25
2023-03-31T00:57:06.693Z,99874.50
2023-03-31T00:59:38.644Z,99874.66
2023-03-31T01:02:05.480Z,99871.34
2023-03-31T01:04:36.451Z,99864.16
2023-03-31T01:07:42.754Z,99864.16
2023-03-31T01:10:10.639Z,99853.81
2023-03-31T01:12:40.182Z,99856.00
2023-03-31T01:15:07.780Z,99846.16
2023-03-31T01:17:35.336Z,99835.38
2023-03-31T01:20:35.454Z,99835.38
2023-03-31T01:23:14.681Z,99821.13
2023-03-31T01:26:01.415Z,99816.31
2023-03-31T01:29:02.935Z,99816.38
2023-03-31T01:31:48.674Z,99808.16
2023-03-31T01:34:33.471Z,99807.69
2023-03-31T01:37:25.292Z,99810.63
2023-03-31T01:40:13.065Z,99801.41
2023-03-31T01:42:40.689Z,99801.31
2023-03-31T01:45:44.644Z,99795.91
2023-03-31T01:48:21.236Z,99792.59
2023-03-31T01:51:01.471Z,99795.22
2023-03-31T01:53:49.298Z,99791.69
2023-03-31T01:56:30.573Z,99782.59
2023-03-31T01:59:27.263Z,99778.47
2023-03-31T02:02:13.826Z,99767.25
2023-03-31T02:04:46.737Z,99770.50
2023-03-31T02:07:19.546Z,99767.72
2023-03-31T02:09:53.337Z,99757.59
2023-03-31T02:12:24.595Z,99759.72
2023-03-31T02:14:54.581Z,99756.94
2023-03-31T02:17:33.014Z,99739.72
2023-03-31T02:20:06.099Z,99738.72
2023-03-31T02:22:36.169Z,99732.50
2023-03-31T02:25:06.341Z,99735.59
2023-03-31T02:27:37.492Z,99717.09
2023-03-31T02:30:04.837Z,99725.69
2023-03-31T02:32:36.765Z,99725.97
2023-03-31T02:35:04.804Z,99725.00
2023-03-31T02:37:31.378Z,99723.38
2023-03-31T02:40:06.266Z,99719.88
2023-03-31T02:42:32.780Z,99716.41
2023-03-31T02:45:07.076Z,99713.13
2023-03-31T02:47:34.780Z,99703.66
2023-03-31T02:50:03.947Z,99701.31
2023-03-31T02:53:13.887Z,99705.56
2023-03-31T02:56:13.110Z,99692.81
2023-03-31T02:59:01.496Z,99695.97
2023-03-31T03:01:43.725Z,99698.69
2023-03-31T03:04:59.525Z,99695.16
2023-03-31T03:07:37.641Z,99688.22
2023-03-31T03:10:24.291Z,99684.59
2023-03-31T03:13:02.538Z,99675.88
2023-03-31T03:16:07.446Z,99674.03
2023-03-31T03:18:35.011Z,99668.69
2023-03-31T03:21:02.652Z,99668.19
2023-03-31T03:23:29.106Z,99660.03
2023-03-31T03:25:55.687Z,99651.69
2023-03-31T03:28:22.141Z,99650.66
2023-03-31T03:30:48.652Z,99647.78
2023-03-31T03:33:17.290Z,99653.50
2023-03-31T03:35:43.999Z,99644.88
2023-03-31T03:38:10.681Z,99643.56
2023-03-31T03:40:37.139Z,99636.28
2023-03-31T03:43:03.580Z,99628.94
2023-03-31T03:45:30.573Z,99627.13
2023-03-31T03:47:57.676Z,99625.53
2023-03-31T03:50:24.330Z,99614.16
2023-03-31T03:52:51.079Z,99620.59
2023-03-31T03:55:17.816Z,99610.25
2023-03-31T03:57:44.267Z,99601.91
2023-03-31T04:00:12.305Z,99596.28
2023-03-31T04:02:40.109Z,99589.22
2023-03-31T04:05:07.101Z,99585.13
2023-03-31T04:07:33.598Z,99575.50
2023-03-31T04:10:00.208Z,99576.13
2023-03-31T04:12:27.322Z,99564.97
2023-03-31T04:14:53.765Z,99563.56
2023-03-31T04:17:32.664Z,99557.34
2023-03-31T04:20:08.877Z,99554.88
2023-03-31T04:22:40.432Z,99550.13
2023-03-31T04:25:14.838Z,99536.94
2023-03-31T04:27:54.987Z,99529.34
2023-03-31T04:30:23.361Z,99528.44
2023-03-31T04:32:58.610Z,99511.97
2023-03-31T04:35:28.002Z,99507.84
2023-03-31T04:38:02.640Z,99497.88
2023-03-31T04:40:29.093Z,99498.28
2023-03-31T04:42:55.547Z,99490.16
2023-03-31T04:45:22.105Z,99477.41
2023-03-31T04:47:48.625Z,99478.22
2023-03-31T04:50:17.030Z,99470.16
2023-03-31T04:52:43.935Z,99468.44
2023-03-31T04:55:10.843Z,99460.59
2023-03-31T04:57:37.367Z,99454.47
2023-03-31T05:00:08.140Z,99452.75
2023-03-31T05:02:35.339Z,99448.25
2023-03-31T05:05:04.579Z,99445.53
2023-03-31T05:07:31.518Z,99444.91
2023-03-31T05:09:58.253Z,99444.44
2023-03-31T05:12:25.820Z,99443.75
2023-03-31T05:14:52.352Z,99443.16
2023-03-31T05:17:18.825Z,99438.59
2023-03-31T05:19:45.394Z,99437.91
2023-03-31T05:22:11.848Z,99440.44
2023-03-31T05:24:38.287Z,99432.38
2023-03-31T05:27:04.862Z,99432.69
2023-03-31T05:29:31.362Z,99429.47
2023-03-31T05:31:57.909Z,99428.19
2023-03-31T05:34:24.450Z,99431.81
2023-03-31T05:36:53.487Z,99422.97
2023-03-31T05:39:20.134Z,99425.88
2023-03-31T05:41:46.619Z,99437.63
2023-03-31T05:44:13.170Z,99425.88
2023-03-31T05:46:39.691Z,99433.81
2023-03-31T05:49:06.978Z,99431.19
2023-03-31T05:51:33.735Z,99429.78
2023-03-31T05:54:00.783Z,99421.16
2023-03-31T05:56:27.633Z,99424.25
2023-03-31T05:58:54.217Z,99423.22
2023-03-31T06:01:23.139Z,99414.59
2023-03-31T06:03:50.478Z,99404.97
2023-03-31T06:06:17.188Z,99393.47
2023-03-31T06:08:45.806Z,99394.56
2023-03-31T06:11:19.282Z,99396.19
2023-03-31T06:13:46.204Z,99392.09
2023-03-31T06:16:14.347Z,99382.63
2023-03-31T06:18:41.604Z,99390.38
2023-03-31T06:21:10.455Z,99398.41
2023-03-31T06:23:36.886Z,99375.91
2023-03-31T06:26:07.012Z,99380.16
2023-03-31T06:28:34.412Z,99367.69
2023-03-31T06:31:21.767Z,99384.44
2023-03-31T06:33:48.862Z,99380.56
2023-03-31T06:36:22.818Z,99383.34
2023-03-31T06:38:55.054Z,99378.44
2023-03-31T06:41:30.113Z,99376.81
2023-03-31T06:43:56.601Z,99370.28
2023-03-31T06:46:24.404Z,99369.31
2023-03-31T06:48:50.863Z,99359.34
2023-03-31T06:51:17.720Z,99357.22
2023-03-31T06:53:44.170Z,99352.00
2023-03-31T06:56:10.632Z,99348.50
2023-03-31T06:58:37.034Z,99351.59
2023-03-31T07:01:29.054Z,99345.09
2023-03-31T07:03:55.456Z,99347.28
2023-03-31T07:06:21.939Z,99345.47
2023-03-31T07:08:48.442Z,99339.16
2023-03-31T07:11:14.830Z,99336.25
2023-03-31T07:13:41.354Z,99331.69
2023-03-31T07:16:08.176Z,99328.78
2023-03-31T07:18:36.493Z,99321.66
2023-03-31T07:21:05.792Z,99324.06
2023-03-31T07:23:35.609Z,99319.34
2023-03-31T07:26:02.629Z,99308.38
2023-03-31T07:28:30.115Z,99298.91
2023-03-31T07:30:56.521Z,99300.13
2023-03-31T07:33:23.236Z,99293.91
2023-03-31T07:35:59.962Z,99294.50
2023-03-31T07:38:35.474Z,99289.75
2023-03-31T07:41:10.222Z,99277.91
2023-03-31T07:43:36.794Z,99277.09
2023-03-31T07:46:04.977Z,99270.28
2023-03-31T07:48:31.708Z,99267.56
2023-03-31T07:50:58.267Z,99260.09
2023-03-31T07:53:31.020Z,99250.25
2023-03-31T07:55:57.669Z,99246.28
2023-03-31T07:58:24.385Z,99244.75
2023-03-31T08:00:50.784Z,99244.03
2023-03-31T08:03:17.259Z,99237.28
2023-03-31T08:05:43.694Z,99232.84
2023-03-31T08:08:10.104Z,99229.22
2023-03-31T08:10:37.225Z,99229.94
2023-03-31T08:13:03.682Z,99212.66
2023-03-31T08:15:30.281Z,99214.16
2023-03-31T08:17:56.741Z,99210.31
2023-03-31T08:20:23.711Z,99210.88
2023-03-31T08:22:50.231Z,99201.88
2023-03-31T08:25:17.009Z,99204.81
2023-03-31T08:27:43.489Z,99203.56
2023-03-31T08:30:11.360Z,99195.13
2023-03-31T08:32:37.988Z,99188.13
2023-03-31T08:35:05.151Z,99190.25
2023-03-31T08:37:32.385Z,99201.63
2023-03-31T08:39:58.931Z,99194.47
2023-03-31T08:42:36.766Z,99186.63
2023-03-31T08:45:15.184Z,99170.97
2023-03-31T08:47:43.799Z,99177.19
2023-03-31T08:50:17.271Z,99184.56
2023-03-31T08:53:04.026Z,99172.72
2023-03-31T08:55:41.943Z,99163.75
2023-03-31T08:58:18.669Z,99167.91
2023-03-31T09:01:09.168Z,99162.44
2023-03-31T09:03:47.098Z,99158.44
2023-03-31T09:06:24.487Z,99158.56
2023-03-31T09:08:53.477Z,99165.16
2023-03-31T09:11:29.472Z,99165.63
2023-03-31T09:14:13.671Z,99159.19
2023-03-31T09:17:14.269Z,99152.19
2023-03-31T09:20:08.673Z,99147.38
2023-03-31T09:22:39.843Z,99143.97
2023-03-31T09:25:23.597Z,99146.91
2023-03-31T09:27:52.630Z,99140.63
2023-03-31T09:30:25.932Z,99143.97
2023-03-31T09:33:28.348Z,99141.38
2023-03-31T09:35:54.928Z,99141.88
2023-03-31T09:38:21.357Z,99135.03
2023-03-31T09:40:47.966Z,99133.41
2023-03-31T09:43:22.420Z,99133.41
2023-03-31T09:46:05.320Z,99131.66
2023-03-31T09:48:36.113Z,99127.75
2023-03-31T09:51:06.606Z,99130.44
2023-03-31T09:53:56.953Z,99123.41
2023-03-31T09:56:41.825Z,99125.34
2023-03-31T09:59:14.416Z,99121.22
2023-03-31T10:01:42.088Z,99120.53
2023-03-31T10:04:09.174Z,99113.84
2023-03-31T10:06:42.079Z,99105.53
2023-03-31T10:09:11.076Z,99104.47
2023-03-31T10:11:37.979Z,99104.50
2023-03-31T10:14:14.506Z,99112.31
2023-03-31T10:16:54.171Z,99106.53
2023-03-31T10:19:23.719Z,99117.09
2023-03-31T10:22:15.529Z,99108.31
2023-03-31T10:24:47.061Z,99117.88
2023-03-31T10:27:24.486Z,99102.06
2023-03-31T10:29:59.853Z,99101.94
2023-03-31T10:32:29.199Z,99101.75
2023-03-31T10:34:57.769Z,99095.34
2023-03-31T10:37:28.060Z,99093.47
2023-03-31T10:40:00.851Z,99093.50
2023-03-31T10:42:28.904Z,99090.44
2023-03-31T10:45:16.209Z,99096.19
2023-03-31T10:47:50.140Z,99095.81
2023-03-31T10:50:16.808Z,99090.38
2023-03-31T10:52:48.492Z,99091.47
2023-03-31T10:55:26.684Z,99094.94
2023-03-31T10:58:16.406Z,99096.84
2023-03-31T11:01:25.386Z,99106.47
2023-03-31T11:03:58.313Z,99099.78
2023-03-31T11:06:56.888Z,99098.06
2023-03-31T11:09:46.327Z,99092.66
2023-03-31T11:12:37.034Z,99093.16
2023-03-31T11:15:21.176Z,99086.94
2023-03-31T11:18:08.897Z,99087.59
2023-03-31T11:21:06.543Z,99076.63
2023-03-31T11:23:58.158Z,99071.16
2023-03-31T11:26:44.842Z,99074.28
2023-03-31T11:29:51.442Z,99077.47
2023-03-31T11:32:48.331Z,99071.78
2023-03-31T11:35:39.526Z,99069.59
2023-03-31T11:38:32.040Z,99063.06
2023-03-31T11:41:37.066Z,99073.63
2023-03-31T11:44:12.813Z,99076.81
2023-03-31T11:46:57.326Z,99069.50
2023-03-31T11:49:30.298Z,99068.69
2023-03-31T11:52:06.279Z,99071.44
2023-03-31T11:54:55.511Z,99074.31
2023-03-31T11:57:27.484Z,99069.34
2023-03-31T11:59:58.977Z,99070.34
2023-03-31T12:02:51.274Z,99074.00
2023-03-31T12:05:19.222Z,99068.25
2023-03-31T12:07:59.611Z,99058.69
2023-03-31T12:10:42.984Z,99056.28
2023-03-31T12:13:54.690Z,99055.81
2023-03-31T12:16:38.770Z,99044.78
2023-03-31T12:19:17.223Z,99041.41
2023-03-31T12:21:49.778Z,99043.19
2023-03-31T12:24:16.232Z,99034.19
2023-03-31T12:26:57.750Z,99035.97
2023-03-31T12:29:31.246Z,99032.28
2023-03-31T12:32:02.823Z,99024.59
2023-03-31T12:34:31.448Z,99024.44
2023-03-31T12:37:30.425Z,99022.00
2023-03-31T12:40:15.589Z,99021.34
2023-03-31T12:43:04.579Z,99018.91
2023-03-31T12:45:39.247Z,99009.91
2023-03-31T12:48:30.627Z,99014.25
2023-03-31T12:51:10.108Z,99015.22
2023-03-31T12:54:02.284Z,99011.47
2023-03-31T12:57:03.672Z,99012.63
2023-03-31T12:59:47.030Z,99014.38
2023-03-31T13:02:16.315Z,99003.38
2023-03-31T13:04:43.937Z,99002.84
2023-03-31T13:07:37.498Z,99007.53
2023-03-31T13:10:19.809Z,99007.41
2023-03-31T13:13:00.596Z,99003.56
2023-03-31T13:15:30.286Z,99004.72
2023-03-31T13:18:06.291Z,99006.00
2023-03-31T13:20:38.321Z,99002.97
2023-03-31T13:23:21.212Z,98992.44
2023-03-31T13:25:50.513Z,98996.00
2023-03-31T13:28:22.834Z,98990.69
2023-03-31T13:30:57.929Z,98988.28
2023-03-31T13:33:27.942Z,98990.69
2023-03-31T13:36:07.712Z,98984.28
2023-03-31T13:39:05.746Z,98979.97
2023-03-31T13:41:56.597Z,98977.59
2023-03-31T13:45:09.534Z,98959.03
2023-03-31T13:47:57.535Z,98967.34
2023-03-31T13:51:01.578Z,98960.78
2023-03-31T13:53:40.514Z,98957.72
2023-03-31T13:56:38.360Z,98964.59
2023-03-31T13:59:23.690Z,98960.00
2023-03-31T14:02:04.376Z,98958.84
2023-03-31T14:04:43.141Z,98951.06
2023-03-31T14:07:16.967Z,98952.31
2023-03-31T14:09:49.767Z,98955.75
2023-03-31T14:12:23.643Z,98951.34
2023-03-31T14:14:53.688Z,98950.28
2023-03-31T14:17:22.391Z,98948.56
2023-03-31T14:20:08.372Z,98950.59
2023-03-31T14:22:47.505Z,98950.50
2023-03-31T14:25:40.897Z,98939.66
2023-03-31T14:28:44.691Z,98940.59
2023-03-31T14:31:27.015Z,98949.44
2023-03-31T14:34:39.857Z,98933.75
2023-03-31T14:37:11.479Z,98928.69
2023-03-31T14:39:42.749Z,98940.00
2023-03-31T14:42:27.041Z,98934.44
2023-03-31T14:44:58.680Z,98942.38
2023-03-31T14:47:30.605Z,98945.44
2023-03-31T14:50:04.744Z,98944.91
2023-03-31T14:52:33.468Z,98948.59
2023-03-31T14:55:00.595Z,98946.41
2023-03-31T14:57:34.801Z,98950.13
2023-03-31T15:00:06.551Z,98947.47
2023-03-31T15:02:36.092Z,98948.75
2023-03-31T15:05:08.096Z,98951.44
2023-03-31T15:07:36.121Z,98956.72
2023-03-31T15:10:04.844Z,98949.72
2023-03-31T15:12:31.613Z,98961.31
2023-03-31T15:15:06.129Z,98956.19
2023-03-31T15:17:39.133Z,98954.94
2023-03-31T15:20:25.770Z,98944.19
2023-03-31T15:22:52.500Z,98949.66
2023-03-31T15:25:19.548Z,98949.84
2023-03-31T15:27:53.916Z,98950.81
2023-03-31T15:30:25.826Z,98943.31
2023-03-31T15:32:58.788Z,98943.81
2023-03-31T15:35:33.618Z,98941.72
2023-03-31T15:38:02.629Z,98932.09
2023-03-31T15:40:32.522Z,98944.78
2023-03-31T15:43:33.656Z,98941.91
2023-03-31T15:46:02.099Z,98944.63
2023-03-31T15:48:37.037Z,98945.25
2023-03-31T15:51:07.650Z,98941.22
2023-03-31T15:53:48.737Z,98940.81
2023-03-31T15:56:33.539Z,98936.81
2023-03-31T15:59:04.692Z,98930.41
2023-03-31T16:01:45.938Z,98930.41
2023-03-31T16:04:14.621Z,98933.94
2023-03-31T16:06:55.123Z,98927.88
2023-03-31T16:09:26.006Z,98925.63
2023-03-31T16:11:56.381Z,98927.22
2023-03-31T16:14:33.461Z,98921.59
2023-03-31T16:17:04.410Z,98917.94
2023-03-31T16:19:39.616Z,98926.88
2023-03-31T16:22:06.553Z,98917.28
2023-03-31T16:24:35.301Z,98922.88
2023-03-31T16:27:06.763Z,98925.09
2023-03-31T16:29:36.890Z,98927.03
2023-03-31T16:32:16.009Z,98932.78
2023-03-31T16:34:53.437Z,98927.16
2023-03-31T16:37:19.978Z,98929.72
2023-03-31T16:39:46.392Z,98928.78
2023-03-31T16:42:12.927Z,98924.78
2023-03-31T16:44:40.842Z,98927.16
2023-03-31T16:47:08.060Z,98931.66
2023-03-31T16:49:34.761Z,98931.00
2023-03-31T16:52:05.107Z,98929.28
2023-03-31T16:54:31.967Z,98935.84
2023-03-31T16:56:58.816Z,98928.78
2023-03-31T16:59:26.007Z,98932.50
2023-03-31T17:01:52.437Z,98929.13
2023-03-31T17:04:19.770Z,98934.56
2023-03-31T17:06:46.326Z,98930.41
2023-03-31T17:09:12.737Z,98939.38
2023-03-31T17:11:39.171Z,98930.25
2023-03-31T17:14:05.885Z,98931.22
2023-03-31T17:16:44.980Z,98939.06
2023-03-31T17:19:14.124Z,98937.31
2023-03-31T17:21:40.597Z,98938.09
2023-03-31T17:24:07.550Z,98926.75
2023-03-31T17:26:35.935Z,98933.00
2023-03-31T17:29:04.966Z,98928.34
2023-03-31T17:31:31.859Z,98931.84
2023-03-31T17:33:58.635Z,98932.50
2023-03-31T17:36:25.955Z,98927.41
2023-03-31T17:38:52.725Z,98938.59
2023-03-31T17:41:19.147Z,98927.06
2023-03-31T17:43:47.182Z,98925.78
2023-03-31T17:46:14.135Z,98932.00
2023-03-31T17:48:41.785Z,98926.56
2023-03-31T17:51:11.992Z,98939.19
2023-03-31T17:53:39.668Z,98936.19
2023-03-31T17:56:06.553Z,98933.25
2023-03-31T17:58:33.599Z,98941.25
2023-03-31T18:01:00.289Z,98947.97
2023-03-31T18:03:29.811Z,98952.88
2023-03-31T18:05:56.676Z,98952.25
2023-03-31T18:08:23.692Z,98957.22
2023-03-31T18:10:50.545Z,98954.50
2023-03-31T18:13:17.419Z,98946.34
2023-03-31T18:15:51.491Z,98953.69
2023-03-31T18:18:18.883Z,98962.47
2023-03-31T18:20:45.338Z,98958.63
2023-03-31T18:23:12.393Z,98971.59
2023-03-31T18:25:38.937Z,98966.00
2023-03-31T18:28:05.426Z,98970.63
2023-03-31T18:30:32.102Z,98971.72
2023-03-31T18:32:59.292Z,98968.22
2023-03-31T18:35:27.239Z,98970.63
2023-03-31T18:37:53.753Z,98967.56
2023-03-31T18:40:20.176Z,98971.72
2023-03-31T18:42:47.546Z,98962.94
2023-03-31T18:45:14.112Z,98964.97
2023-03-31T18:47:40.615Z,98968.47
2023-03-31T18:50:07.479Z,98958.75
2023-03-31T18:52:36.100Z,98957.13
2023-03-31T18:55:03.512Z,98962.09
2023-03-31T18:57:30.105Z,98958.59
2023-03-31T18:59:56.534Z,98966.28
2023-03-31T19:02:23.049Z,98961.28
2023-03-31T19:04:49.730Z,98955.69
2023-03-31T19:07:16.289Z,98960.44
2023-03-31T19:09:42.836Z,98958.53
2023-03-31T19:12:11.698Z,98961.91
2023-03-31T19:14:38.722Z,98960.44
2023-03-31T19:17:05.902Z,98960.28
2023-03-31T19:19:32.367Z,98963.94
2023-03-31T19:21:58.922Z,98960.28
2023-03-31T19:24:25.755Z,98966.19
2023-03-31T19:26:52.320Z,98968.09
2023-03-31T19:29:19.081Z,98965.38
2023-03-31T19:31:47.518Z,98964.56
2023-03-31T19:34:16.447Z,98960.13
2023-03-31T19:36:43.318Z,98967.13
2023-03-31T19:39:11.058Z,98959.66
2023-03-31T19:41:37.514Z,98954.53
2023-03-31T19:44:04.869Z,98954.72
2023-03-31T19:46:31.660Z,98955.34
2023-03-31T19:48:58.134Z,98953.16
2023-03-31T19:51:32.160Z,98947.22
2023-03-31T19:53:58.857Z,98948.50
2023-03-31T19:56:27.085Z,98952.69
2023-03-31T19:58:53.591Z,98952.31
2023-03-31T20:01:24.008Z,98958.28
2023-03-31T20:03:53.019Z,98954.09
2023-03-31T20:06:25.802Z,98948.84
2023-03-31T20:08:57.496Z,98953.66
2023-03-31T20:11:26.116Z,98948.06
2023-03-31T20:13:53.037Z,98959.53
2023-03-31T20:16:22.408Z,98955.56
2023-03-31T20:19:11.276Z,98951.38
2023-03-31T20:21:38.902Z,98948.19
2023-03-31T20:24:06.390Z,98955.09
2023-03-31T20:26:34.254Z,98951.06
2023-03-31T20:29:03.607Z,98949.59
2023-03-31T20:31:33.608Z,98952.44
2023-03-31T20:34:00.359Z,98949.09
2023-03-31T20:36:32.112Z,98953.25
2023-03-31T20:38:59.902Z,98947.16
2023-03-31T20:41:28.600Z,98953.09
2023-03-31T20:43:55.927Z,98959.13
2023-03-31T20:46:23.095Z,98955.75
2023-03-31T20:48:58.021Z,98958.63
2023-03-31T20:51:30.313Z,98952.41
2023-03-31T20:53:58.730Z,98954.47
2023-03-31T20:56:34.166Z,98949.69
2023-03-31T20:59:01.038Z,98952.41
2023-03-31T21:01:31.014Z,98953.50
2023-03-31T21:04:02.108Z,98951.88
2023-03-31T21:06:32.539Z,98947.91
2023-03-31T21:08:59.982Z,98955.25
2023-03-31T21:11:27.277Z,98956.34
2023-03-31T21:13:54.004Z,98955.41
2023-03-31T21:16:21.484Z,98955.72
2023-03-31T21:18:48.313Z,98956.53
2023-03-31T21:21:19.321Z,98950.94
2023-03-31T21:23:46.594Z,98951.72
2023-03-31T21:26:15.688Z,98957.31
2023-03-31T21:28:43.315Z,98959.22
2023-03-31T21:31:11.015Z,98962.25
2023-03-31T21:33:39.044Z,98953.63
2023-03-31T21:36:07.953Z,98953.81
2023-03-31T21:38:36.225Z,98960.03
2023-03-31T21:41:10.858Z,98963.03
2023-03-31T21:43:37.762Z,98959.22
2023-03-31T21:46:04.573Z,98958.31
2023-03-31T21:48:31.937Z,98956.38
2023-03-31T21:51:00.831Z,98960.41
2023-03-31T21:53:30.117Z,98960.56
2023-03-31T21:55:57.660Z,98967.53
2023-03-31T21:58:28.384Z,98964.00
2023-03-31T22:00:56.465Z,98972.16
2023-03-31T22:03:27.520Z,98959.19
2023-03-31T22:05:56.604Z,98954.38
2023-03-31T22:08:24.318Z,98966.66
2023-03-31T22:10:52.204Z,98954.53
2023-03-31T22:13:19.897Z,98963.47
2023-03-31T22:15:46.916Z,98962.31
2023-03-31T22:18:13.560Z,98958.97
2023-03-31T22:20:40.955Z,98962.94
2023-03-31T22:23:07.487Z,98966.44
2023-03-31T22:25:34.553Z,98968.84
2023-03-31T22:28:03.956Z,98966.13
2023-03-31T22:30:31.894Z,98964.38
2023-03-31T22:32:58.538Z,98961.38
2023-03-31T22:35:26.033Z,98959.28
2023-03-31T22:37:52.733Z,98959.22
2023-03-31T22:40:19.243Z,98958.16
2023-03-31T22:42:45.658Z,98957.72
2023-03-31T22:45:12.391Z,98959.59
2023-03-31T22:47:39.037Z,98964.75
2023-03-31T22:50:06.219Z,98966.44
2023-03-31T22:52:32.777Z,98966.44
2023-03-31T22:54:59.516Z,98967.22
2023-03-31T22:57:26.423Z,98971.91
2023-03-31T22:59:52.955Z,98967.16
2023-03-31T23:02:19.539Z,98970.81
2023-03-31T23:04:46.056Z,98973.22
2023-03-31T23:07:12.538Z,98974.63
2023-03-31T23:09:39.160Z,98972.47
2023-03-31T23:12:06.141Z,98978.16
2023-03-31T23:14:32.794Z,98970.00
2023-03-31T23:16:59.361Z,98975.13
2023-03-31T23:19:26.252Z,98971.25
2023-03-31T23:21:52.772Z,98970.44
2023-03-31T23:24:21.142Z,98969.94
2023-03-31T23:26:47.544Z,98970.91
2023-03-31T23:29:13.985Z,98970.91
2023-03-31T23:31:40.525Z,98959.47
2023-03-31T23:34:07.215Z,98965.22
2023-03-31T23:36:33.816Z,98965.16
2023-03-31T23:39:00.288Z,98959.75
2023-03-31T23:41:27.904Z,98961.16
2023-03-31T23:43:55.722Z,98963.53
2023-03-31T23:46:22.227Z,98960.47
2023-03-31T23:48:49.114Z,98966.97
2023-03-31T23:51:15.841Z,98953.41
2023-03-31T23:53:42.305Z,98952.78
2023-03-31T23:56:11.807Z,98956.78
2023-03-31T23:58:39.105Z,98955.28
